createdAt,value
2019-03-24T00:01:48.785Z,10.72
2019-03-24T00:04:17.372Z,12.35
2019-03-24T00:06:45.634Z,11.65
2019-03-24T00:09:13.892Z,12.45
2019-03-24T00:11:42.132Z,14.43
2019-03-24T00:14:10.373Z,14.07
2019-03-24T00:16:38.665Z,15.95
2019-03-24T00:19:06.904Z,15.13
2019-03-24T00:21:35.437Z,18.10
2019-03-24T00:24:04.599Z,15.15
2019-03-24T00:26:32.840Z,16.00
2019-03-24T00:29:01.088Z,15.40
2019-03-24T00:31:29.347Z,12.23
2019-03-24T00:33:57.591Z,12.45
2019-03-24T00:36:26.161Z,13.10
2019-03-24T00:38:54.732Z,14.13
2019-03-24T00:41:22.971Z,13.90
2019-03-24T00:43:51.500Z,13.25
2019-03-24T00:46:19.992Z,12.23
2019-03-24T00:48:48.568Z,11.93
2019-03-24T00:51:17.156Z,14.00
2019-03-24T00:53:47.370Z,14.18
2019-03-24T00:56:15.612Z,14.33
2019-03-24T00:58:43.929Z,13.32
2019-03-24T01:01:14.480Z,12.78
2019-03-24T01:03:42.728Z,13.78
2019-03-24T01:06:11.245Z,12.13
2019-03-24T01:08:39.492Z,14.28
2019-03-24T01:11:08.012Z,12.60
2019-03-24T01:13:36.596Z,12.58
2019-03-24T01:16:05.189Z,12.58
2019-03-24T01:18:34.690Z,13.48
2019-03-24T01:21:03.290Z,13.72
2019-03-24T01:23:31.919Z,14.10
2019-03-24T01:26:01.480Z,10.75
2019-03-24T01:28:29.736Z,13.10
2019-03-24T01:31:17.792Z,16.27
2019-03-24T01:33:46.072Z,14.73
2019-03-24T01:36:14.665Z,13.95
2019-03-24T01:38:43.249Z,12.63
2019-03-24T01:41:12.754Z,10.95
2019-03-24T01:43:41.248Z,12.73
2019-03-24T01:46:09.505Z,12.78
2019-03-24T01:48:57.453Z,14.65
2019-03-24T01:51:25.709Z,14.65
2019-03-24T01:53:54.217Z,12.55
2019-03-24T01:56:23.734Z,13.75
2019-03-24T01:58:51.991Z,14.90
2019-03-24T02:01:21.184Z,10.95
2019-03-24T02:03:49.438Z,14.18
2019-03-24T02:06:17.704Z,13.38
2019-03-24T02:08:46.262Z,14.60
2019-03-24T02:11:14.849Z,13.48
2019-03-24T02:13:43.434Z,13.95
2019-03-24T02:16:12.021Z,14.15
2019-03-24T02:18:41.533Z,12.50
2019-03-24T02:21:09.791Z,15.53
2019-03-24T02:23:38.046Z,13.18
2019-03-24T02:26:06.312Z,11.18
2019-03-24T02:28:34.964Z,13.00
2019-03-24T02:31:03.551Z,16.07
2019-03-24T02:33:31.985Z,17.23
2019-03-24T02:36:00.482Z,16.05
2019-03-24T02:38:30.733Z,14.23
2019-03-24T02:40:59.335Z,13.32
2019-03-24T02:43:27.641Z,14.63
2019-03-24T02:45:56.891Z,13.22
2019-03-24T02:48:25.503Z,14.35
2019-03-24T02:50:53.770Z,15.50
2019-03-24T02:53:22.270Z,13.00
2019-03-24T02:55:50.533Z,13.90
2019-03-24T02:58:18.777Z,14.75
2019-03-24T03:00:47.049Z,14.50
2019-03-24T03:03:15.374Z,16.75
2019-03-24T03:05:43.636Z,16.95
2019-03-24T03:08:12.954Z,15.72
2019-03-24T03:10:41.202Z,13.50
2019-03-24T03:13:10.432Z,18.00
2019-03-24T03:15:38.768Z,16.97
2019-03-24T03:18:08.350Z,16.67
2019-03-24T03:20:36.949Z,17.55
2019-03-24T03:23:05.195Z,17.77
2019-03-24T03:25:33.455Z,21.45
2019-03-24T03:28:01.706Z,19.65
2019-03-24T03:30:30.272Z,20.45
2019-03-24T03:32:58.858Z,18.05
2019-03-24T03:35:27.136Z,16.75
2019-03-24T03:37:56.408Z,17.27
2019-03-24T03:40:25.035Z,17.82
2019-03-24T03:42:53.623Z,19.52
2019-03-24T03:45:26.475Z,25.85
2019-03-24T03:47:55.260Z,35.90
2019-03-24T03:50:23.518Z,26.70
2019-03-24T03:52:51.778Z,22.15
2019-03-24T03:55:20.050Z,32.73
2019-03-24T03:57:48.623Z,43.42
2019-03-24T04:00:18.509Z,36.83
2019-03-24T04:02:46.775Z,36.23
2019-03-24T04:05:15.017Z,34.08
2019-03-24T04:07:43.593Z,29.10
2019-03-24T04:10:12.182Z,25.62
2019-03-24T04:12:40.442Z,22.67
2019-03-24T04:15:08.703Z,28.65
2019-03-24T04:17:37.218Z,29.07
2019-03-24T04:20:06.407Z,23.55
2019-03-24T04:22:34.739Z,34.00
2019-03-24T04:25:05.685Z,21.68
2019-03-24T04:27:33.967Z,21.33
2019-03-24T04:30:03.868Z,26.50
2019-03-24T04:32:32.381Z,21.70
2019-03-24T04:35:00.633Z,26.07
2019-03-24T04:37:48.641Z,22.58
2019-03-24T04:40:17.229Z,24.23
2019-03-24T04:42:45.529Z,21.50
2019-03-24T04:45:14.204Z,23.98
2019-03-24T04:47:42.469Z,24.90
2019-03-24T04:50:10.716Z,22.37
2019-03-24T04:52:41.293Z,21.60
2019-03-24T04:55:11.821Z,22.70
2019-03-24T04:57:40.989Z,21.20
2019-03-24T05:00:30.554Z,27.52
2019-03-24T05:02:59.192Z,27.70
2019-03-24T05:05:27.442Z,19.85
2019-03-24T05:07:56.056Z,23.47
2019-03-24T05:10:29.324Z,26.27
2019-03-24T05:12:59.537Z,24.55
2019-03-24T05:15:27.790Z,26.12
2019-03-24T05:17:57.936Z,25.30
2019-03-24T05:20:26.200Z,26.60
2019-03-24T05:22:54.504Z,27.13
2019-03-24T05:25:23.763Z,34.08
2019-03-24T05:27:52.202Z,27.35
2019-03-24T05:30:20.449Z,27.67
2019-03-24T05:32:49.685Z,21.23
2019-03-24T05:35:18.290Z,22.75
2019-03-24T05:37:46.881Z,23.57
2019-03-24T05:40:15.465Z,26.85
2019-03-24T05:42:43.734Z,20.50
2019-03-24T05:45:11.984Z,24.70
2019-03-24T05:47:40.527Z,21.25
2019-03-24T05:50:08.769Z,21.90
2019-03-24T05:52:37.389Z,22.07
2019-03-24T05:55:06.585Z,23.95
2019-03-24T05:57:34.845Z,22.75
2019-03-24T06:00:05.601Z,24.87
2019-03-24T06:02:34.112Z,22.17
2019-03-24T06:05:02.371Z,24.50
2019-03-24T06:07:30.632Z,23.12
2019-03-24T06:09:58.889Z,19.37
2019-03-24T06:12:27.129Z,20.12
2019-03-24T06:14:55.398Z,20.12
2019-03-24T06:17:23.683Z,20.92
2019-03-24T06:19:51.941Z,21.33
2019-03-24T06:22:20.541Z,22.42
2019-03-24T06:24:48.801Z,17.42
2019-03-24T06:27:18.077Z,23.05
2019-03-24T06:29:46.719Z,17.37
2019-03-24T06:32:15.878Z,19.35
2019-03-24T06:34:44.397Z,20.92
2019-03-24T06:37:12.649Z,19.32
2019-03-24T06:39:41.157Z,16.32
2019-03-24T06:42:09.680Z,20.40
2019-03-24T06:44:37.931Z,29.35
2019-03-24T06:47:06.195Z,16.60
2019-03-24T06:49:34.450Z,16.93
2019-03-24T06:52:03.078Z,22.62
2019-03-24T06:54:31.345Z,16.52
2019-03-24T06:56:59.609Z,15.93
2019-03-24T06:59:28.125Z,19.45
2019-03-24T07:01:56.380Z,19.52
2019-03-24T07:04:24.897Z,16.87
2019-03-24T07:06:54.074Z,16.50
2019-03-24T07:09:23.262Z,17.70
2019-03-24T07:11:51.521Z,17.92
2019-03-24T07:14:39.205Z,17.73
2019-03-24T07:17:07.786Z,17.65
2019-03-24T07:19:36.375Z,18.77
2019-03-24T07:22:07.238Z,19.20
2019-03-24T07:24:34.933Z,19.77
2019-03-24T07:27:03.465Z,19.12
2019-03-24T07:29:32.641Z,19.32
2019-03-24T07:32:00.948Z,17.90
2019-03-24T07:34:31.477Z,18.42
2019-03-24T07:36:59.750Z,16.93
2019-03-24T07:39:28.370Z,16.67
2019-03-24T07:41:56.944Z,16.80
2019-03-24T07:44:25.525Z,15.95
2019-03-24T07:46:57.081Z,17.40
2019-03-24T07:49:25.355Z,17.12
2019-03-24T07:51:53.681Z,17.42
2019-03-24T07:54:22.272Z,18.55
2019-03-24T07:56:50.813Z,18.98
2019-03-24T07:59:20.333Z,17.37
2019-03-24T08:01:48.914Z,19.23
2019-03-24T08:04:17.548Z,18.67
2019-03-24T08:06:47.115Z,19.17
2019-03-24T08:09:15.381Z,19.35
2019-03-24T08:11:43.628Z,17.98
2019-03-24T08:14:11.890Z,18.27
2019-03-24T08:16:40.149Z,15.98
2019-03-24T08:19:08.410Z,15.63
2019-03-24T08:21:36.663Z,15.93
2019-03-24T08:24:04.923Z,15.18
2019-03-24T08:26:33.181Z,14.78
2019-03-24T08:29:01.440Z,14.63
2019-03-24T08:31:29.697Z,14.60
2019-03-24T08:33:58.302Z,15.48
2019-03-24T08:36:28.834Z,15.75
2019-03-24T08:38:58.013Z,16.10
2019-03-24T08:41:26.630Z,15.93
2019-03-24T08:43:55.215Z,14.47
2019-03-24T08:46:23.464Z,13.85
2019-03-24T08:48:51.725Z,13.13
2019-03-24T08:51:39.726Z,14.38
2019-03-24T08:54:07.996Z,14.60
2019-03-24T08:56:55.673Z,13.70
2019-03-24T08:59:23.933Z,11.75
2019-03-24T09:01:52.178Z,10.78
2019-03-24T09:04:20.960Z,11.48
2019-03-24T09:06:49.466Z,12.40
2019-03-24T09:09:17.754Z,11.50
2019-03-24T09:11:46.308Z,12.45
2019-03-24T09:14:14.904Z,9.98
2019-03-24T09:16:43.165Z,9.53
2019-03-24T09:19:11.766Z,9.33
2019-03-24T09:21:40.033Z,8.93
2019-03-24T09:24:08.283Z,7.33
2019-03-24T09:26:36.625Z,8.33
2019-03-24T09:29:04.925Z,8.48
2019-03-24T09:31:34.169Z,8.80
2019-03-24T09:34:02.420Z,8.43
2019-03-24T09:36:30.686Z,8.10
2019-03-24T09:38:59.251Z,8.00
2019-03-24T09:41:28.441Z,8.00
2019-03-24T09:43:57.045Z,7.20
2019-03-24T09:46:25.621Z,7.97
2019-03-24T09:49:02.697Z,8.45
2019-03-24T09:51:24.235Z,7.80
2019-03-24T09:53:52.731Z,7.35
2019-03-24T09:56:20.996Z,7.58
2019-03-24T09:58:49.248Z,6.78
2019-03-24T10:01:17.865Z,7.15
2019-03-24T10:03:46.117Z,7.65
2019-03-24T10:06:14.381Z,6.85
2019-03-24T10:08:46.999Z,8.03
2019-03-24T10:11:12.927Z,7.20
2019-03-24T10:13:41.173Z,6.85
2019-03-24T10:16:09.438Z,6.80
2019-03-24T10:18:37.976Z,6.72
2019-03-24T10:21:06.241Z,7.42
2019-03-24T10:23:34.849Z,6.87
2019-03-24T10:26:03.125Z,6.85
2019-03-24T10:28:31.377Z,7.40
2019-03-24T10:30:59.626Z,7.10
2019-03-24T10:33:28.272Z,5.92
2019-03-24T10:35:56.779Z,5.65
2019-03-24T10:38:25.345Z,4.87
2019-03-24T10:40:53.847Z,5.53
2019-03-24T10:43:22.108Z,5.17
2019-03-24T10:45:50.604Z,5.92
2019-03-24T10:48:19.189Z,5.47
2019-03-24T10:50:47.773Z,5.40
2019-03-24T10:53:16.961Z,5.95
2019-03-24T10:55:46.481Z,7.05
2019-03-24T10:58:14.749Z,6.00
2019-03-24T11:00:43.287Z,6.55
2019-03-24T11:03:11.520Z,6.22
2019-03-24T11:05:39.793Z,5.60
2019-03-24T11:08:08.045Z,6.12
2019-03-24T11:10:36.315Z,5.83
2019-03-24T11:13:04.574Z,6.10
2019-03-24T11:15:33.141Z,6.50
2019-03-24T11:18:01.396Z,6.70
2019-03-24T11:20:30.010Z,6.80
2019-03-24T11:22:58.265Z,6.22
2019-03-24T11:25:26.519Z,6.53
2019-03-24T11:27:55.053Z,6.67
2019-03-24T11:30:23.646Z,6.10
2019-03-24T11:32:51.892Z,6.17
2019-03-24T11:35:20.519Z,6.05
2019-03-24T11:37:48.764Z,5.62
2019-03-24T11:40:17.983Z,5.00
2019-03-24T11:42:46.233Z,6.03
2019-03-24T11:45:14.501Z,6.37
2019-03-24T11:47:43.720Z,6.62
2019-03-24T11:50:11.987Z,6.85
2019-03-24T11:52:40.236Z,6.85
2019-03-24T11:55:08.674Z,6.62
2019-03-24T11:57:36.932Z,7.40
2019-03-24T12:00:28.885Z,6.50
2019-03-24T12:02:58.069Z,7.15
2019-03-24T12:05:26.323Z,7.33
2019-03-24T12:07:54.593Z,6.25
2019-03-24T12:10:22.845Z,6.83
2019-03-24T12:12:52.349Z,7.03
2019-03-24T12:15:20.600Z,6.60
2019-03-24T12:17:49.217Z,6.97
2019-03-24T12:20:17.477Z,6.47
2019-03-24T12:22:45.740Z,7.45
2019-03-24T12:25:14.227Z,6.72
2019-03-24T12:27:42.757Z,7.20
2019-03-24T12:30:11.017Z,7.05
2019-03-24T12:32:39.264Z,7.17
2019-03-24T12:35:07.961Z,6.95
2019-03-24T12:37:36.209Z,6.72
2019-03-24T12:40:07.169Z,6.92
2019-03-24T12:42:36.741Z,6.80
2019-03-24T12:45:09.011Z,6.35
2019-03-24T12:47:37.601Z,6.25
2019-03-24T12:50:09.208Z,6.15
2019-03-24T12:52:37.222Z,6.20
2019-03-24T12:55:06.833Z,6.87
2019-03-24T12:57:35.254Z,6.67
2019-03-24T13:00:08.329Z,6.33
2019-03-24T13:02:36.897Z,6.60
2019-03-24T13:05:07.949Z,7.00
2019-03-24T13:07:36.526Z,6.12
2019-03-24T13:10:08.142Z,5.92
2019-03-24T13:12:37.345Z,5.92
2019-03-24T13:15:07.595Z,6.00
2019-03-24T13:17:37.137Z,6.33
2019-03-24T13:20:06.458Z,6.58
2019-03-24T13:22:35.526Z,6.40
2019-03-24T13:25:05.917Z,5.95
2019-03-24T13:27:34.437Z,5.20
2019-03-24T13:30:02.969Z,6.55
2019-03-24T13:32:31.514Z,4.92
2019-03-24T13:35:00.677Z,5.50
2019-03-24T13:37:28.942Z,5.58
2019-03-24T13:39:58.505Z,6.42
2019-03-24T13:42:27.084Z,7.15
2019-03-24T13:44:55.357Z,8.63
2019-03-24T13:47:23.966Z,10.55
2019-03-24T13:49:53.125Z,7.55
2019-03-24T13:52:21.753Z,6.70
2019-03-24T13:54:50.003Z,6.17
2019-03-24T13:57:18.264Z,6.10
2019-03-24T13:59:46.516Z,5.95
2019-03-24T14:02:15.077Z,6.15
2019-03-24T14:04:43.665Z,6.72
2019-03-24T14:07:11.917Z,6.33
2019-03-24T14:09:40.535Z,5.87
2019-03-24T14:12:08.795Z,5.83
2019-03-24T14:14:39.347Z,6.58
2019-03-24T14:17:07.604Z,6.40
2019-03-24T14:19:35.878Z,6.12
2019-03-24T14:22:04.142Z,7.42
2019-03-24T14:24:32.404Z,6.42
2019-03-24T14:27:00.733Z,5.28
2019-03-24T14:29:29.338Z,5.65
2019-03-24T14:31:57.925Z,5.87
2019-03-24T14:34:28.115Z,5.90
2019-03-24T14:36:56.639Z,5.90
2019-03-24T14:39:24.892Z,5.37
2019-03-24T14:41:53.152Z,5.28
2019-03-24T14:44:21.401Z,4.95
2019-03-24T14:46:49.661Z,5.03
2019-03-24T14:49:17.985Z,4.83
2019-03-24T14:51:46.253Z,4.78
2019-03-24T14:54:15.485Z,5.00
2019-03-24T14:56:43.760Z,4.92
2019-03-24T14:59:12.022Z,5.08
2019-03-24T15:01:40.265Z,4.67
2019-03-24T15:04:08.860Z,4.22
2019-03-24T15:06:37.491Z,5.03
2019-03-24T15:09:06.777Z,4.42
2019-03-24T15:11:35.021Z,4.42
2019-03-24T15:14:03.349Z,4.30
2019-03-24T15:16:31.609Z,5.08
2019-03-24T15:18:59.868Z,4.40
2019-03-24T15:21:28.160Z,5.17
2019-03-24T15:23:56.420Z,4.08
2019-03-24T15:26:25.598Z,3.92
2019-03-24T15:28:53.856Z,3.98
2019-03-24T15:31:22.104Z,3.98
2019-03-24T15:33:50.674Z,3.70
2019-03-24T15:36:18.938Z,3.40
2019-03-24T15:38:47.181Z,5.53
2019-03-24T15:41:15.432Z,4.12
2019-03-24T15:43:43.693Z,4.20
2019-03-24T15:46:12.281Z,3.70
2019-03-24T15:48:40.547Z,3.75
2019-03-24T15:51:16.791Z,3.33
2019-03-24T15:53:40.060Z,3.72
2019-03-24T15:56:08.355Z,4.00
2019-03-24T15:58:36.970Z,4.30
2019-03-24T16:01:07.146Z,3.98
2019-03-24T16:03:35.415Z,4.10
2019-03-24T16:06:03.960Z,3.95
2019-03-24T16:08:32.545Z,3.98
2019-03-24T16:11:00.792Z,3.87
2019-03-24T16:13:29.060Z,22.07
2019-03-24T16:15:57.557Z,8.68
2019-03-24T16:18:25.826Z,4.58
2019-03-24T16:20:54.190Z,3.80
2019-03-24T16:23:22.547Z,4.05
2019-03-24T16:25:50.837Z,4.58
2019-03-24T16:28:19.345Z,4.80
2019-03-24T16:30:47.890Z,4.42
2019-03-24T16:33:16.161Z,4.53
2019-03-24T16:35:44.753Z,4.30
2019-03-24T16:38:14.264Z,5.00
2019-03-24T16:40:42.518Z,5.22
2019-03-24T16:43:10.768Z,4.42
2019-03-24T16:45:39.314Z,4.25
2019-03-24T16:48:07.560Z,4.08
2019-03-24T16:50:36.189Z,4.53
2019-03-24T16:53:04.702Z,4.30
2019-03-24T16:55:32.970Z,4.42
2019-03-24T16:58:01.537Z,5.25
2019-03-24T17:00:29.812Z,4.30
2019-03-24T17:02:58.060Z,6.33
2019-03-24T17:05:26.325Z,5.45
2019-03-24T17:07:54.927Z,6.15
2019-03-24T17:10:23.551Z,6.85
2019-03-24T17:12:51.796Z,20.80
2019-03-24T17:15:20.052Z,5.33
2019-03-24T17:17:48.307Z,11.70
2019-03-24T17:20:16.574Z,6.50
2019-03-24T17:22:45.152Z,7.80
2019-03-24T17:25:13.750Z,11.50
2019-03-24T17:27:42.357Z,12.28
2019-03-24T17:30:11.586Z,9.35
2019-03-24T17:32:40.100Z,14.68
2019-03-24T17:35:08.715Z,11.68
2019-03-24T17:37:37.233Z,18.00
2019-03-24T17:40:07.344Z,22.20
2019-03-24T17:42:35.588Z,7.53
2019-03-24T17:45:06.437Z,17.70
2019-03-24T17:47:34.693Z,25.48
2019-03-24T17:50:03.569Z,23.65
2019-03-24T17:52:31.841Z,34.43
2019-03-24T17:55:00.346Z,16.82
2019-03-24T17:57:28.722Z,14.25
2019-03-24T17:59:56.981Z,17.45
2019-03-24T18:02:25.228Z,24.75
2019-03-24T18:04:53.805Z,35.60
2019-03-24T18:07:22.064Z,18.65
2019-03-24T18:09:50.322Z,14.78
2019-03-24T18:12:18.576Z,22.25
2019-03-24T18:14:47.137Z,19.40
2019-03-24T18:17:15.773Z,35.92
2019-03-24T18:19:44.037Z,23.70
2019-03-24T18:22:12.597Z,23.55
2019-03-24T18:24:40.857Z,11.65
2019-03-24T18:27:09.109Z,15.10
2019-03-24T18:29:37.371Z,17.92
2019-03-24T18:32:05.801Z,21.37
2019-03-24T18:34:34.082Z,24.02
2019-03-24T18:37:02.386Z,23.07
2019-03-24T18:39:30.969Z,19.52
2019-03-24T18:41:59.233Z,32.75
2019-03-24T18:44:27.497Z,25.92
2019-03-24T18:46:55.741Z,8.38
2019-03-24T18:49:24.001Z,7.05
2019-03-24T18:51:52.251Z,10.65
2019-03-24T18:54:21.445Z,20.60
2019-03-24T18:56:49.708Z,22.37
2019-03-24T18:59:17.962Z,26.90
2019-03-24T19:01:47.437Z,21.55
2019-03-24T19:04:15.709Z,32.10
2019-03-24T19:06:43.994Z,30.40
2019-03-24T19:09:12.258Z,17.42
2019-03-24T19:11:40.577Z,7.37
2019-03-24T19:14:08.836Z,10.48
2019-03-24T19:16:38.349Z,7.05
2019-03-24T19:19:06.609Z,7.42
2019-03-24T19:21:34.848Z,5.70
2019-03-24T19:24:03.398Z,4.80
2019-03-24T19:26:31.654Z,8.25
2019-03-24T19:29:00.265Z,6.45
2019-03-24T19:31:28.520Z,12.03
2019-03-24T19:33:56.822Z,11.53
2019-03-24T19:36:25.068Z,11.73
2019-03-24T19:38:53.706Z,6.65
2019-03-24T19:41:21.953Z,10.90
2019-03-24T19:43:50.567Z,6.25
2019-03-24T19:46:19.165Z,7.50
2019-03-24T19:48:47.414Z,8.90
2019-03-24T19:51:15.917Z,13.35
2019-03-24T19:53:44.509Z,17.27
2019-03-24T19:56:13.093Z,21.20
2019-03-24T19:58:41.681Z,15.30
2019-03-24T20:01:10.274Z,15.35
2019-03-24T20:03:39.445Z,10.70
2019-03-24T20:06:07.957Z,10.48
2019-03-24T20:08:38.490Z,13.98
2019-03-24T20:11:06.972Z,8.70
2019-03-24T20:13:35.235Z,13.70
2019-03-24T20:16:04.419Z,23.25
2019-03-24T20:18:32.732Z,12.80
2019-03-24T20:21:01.323Z,18.75
2019-03-24T20:23:29.825Z,18.45
2019-03-24T20:25:59.077Z,17.87
2019-03-24T20:28:27.596Z,18.35
2019-03-24T20:30:56.770Z,46.65
2019-03-24T20:33:25.029Z,43.20
2019-03-24T20:35:53.569Z,24.12
2019-03-24T20:38:21.832Z,41.95
2019-03-24T20:40:50.432Z,19.50
2019-03-24T20:43:18.781Z,18.98
2019-03-24T20:45:47.405Z,47.33
2019-03-24T20:48:15.815Z,24.70
2019-03-24T20:50:44.076Z,42.67
2019-03-24T20:53:18.083Z,26.15
2019-03-24T20:55:43.045Z,10.68
2019-03-24T20:58:11.308Z,20.52
2019-03-24T21:00:40.882Z,43.05
2019-03-24T21:03:09.564Z,37.75
2019-03-24T21:05:37.817Z,11.08
2019-03-24T21:08:06.060Z,22.65
2019-03-24T21:10:35.306Z,57.33
2019-03-24T21:13:03.842Z,53.90
2019-03-24T21:15:32.405Z,27.55
2019-03-24T21:18:02.584Z,45.12
2019-03-24T21:20:30.849Z,13.65
2019-03-24T21:22:59.397Z,26.48
2019-03-24T21:25:27.985Z,71.82
2019-03-24T21:27:56.244Z,22.50
2019-03-24T21:30:38.052Z,15.95
2019-03-24T21:33:06.741Z,22.77
2019-03-24T21:35:35.155Z,50.05
2019-03-24T21:38:03.391Z,28.95
2019-03-24T21:40:51.433Z,18.82
2019-03-24T21:43:19.692Z,21.65
2019-03-24T21:45:47.935Z,26.07
2019-03-24T21:48:16.210Z,11.85
2019-03-24T21:50:44.474Z,73.25
2019-03-24T21:53:13.640Z,16.23
2019-03-24T21:55:41.890Z,35.10
2019-03-24T21:58:11.169Z,28.35
2019-03-24T22:00:39.742Z,21.95
2019-03-24T22:03:08.313Z,47.15
2019-03-24T22:05:36.570Z,45.25
2019-03-24T22:08:04.815Z,16.45
2019-03-24T22:10:33.081Z,33.80
2019-03-24T22:13:02.316Z,41.50
2019-03-24T22:15:30.946Z,38.55
2019-03-24T22:17:59.188Z,21.30
2019-03-24T22:20:27.457Z,40.40
2019-03-24T22:22:55.700Z,61.58
2019-03-24T22:25:24.276Z,17.20
2019-03-24T22:27:52.528Z,28.42
2019-03-24T22:30:21.145Z,106.40
2019-03-24T22:32:49.669Z,36.65
2019-03-24T22:35:18.217Z,40.80
2019-03-24T22:37:46.459Z,22.48
2019-03-24T22:40:14.724Z,45.98
2019-03-24T22:42:43.260Z,37.17
2019-03-24T22:45:11.854Z,20.23
2019-03-24T22:47:40.096Z,26.48
2019-03-24T22:50:08.420Z,28.32
2019-03-24T22:52:37.410Z,23.87
2019-03-24T22:55:06.920Z,18.90
2019-03-24T22:57:37.456Z,15.23
2019-03-24T23:00:13.197Z,13.88
2019-03-24T23:02:41.443Z,33.70
2019-03-24T23:05:09.710Z,20.48
2019-03-24T23:07:38.356Z,18.73
2019-03-24T23:10:06.604Z,8.60
2019-03-24T23:12:35.113Z,7.90
2019-03-24T23:15:05.449Z,7.87
2019-03-24T23:17:34.031Z,7.95
2019-03-24T23:20:02.648Z,84.13
2019-03-24T23:22:30.976Z,12.13
2019-03-24T23:24:59.281Z,10.48
2019-03-24T23:27:27.877Z,18.35
2019-03-24T23:29:56.394Z,19.05
2019-03-24T23:32:24.632Z,16.10
2019-03-24T23:35:12.679Z,50.20
2019-03-24T23:37:40.924Z,27.87
2019-03-24T23:40:09.245Z,24.40
2019-03-24T23:42:38.122Z,27.93
2019-03-24T23:45:07.521Z,22.32
2019-03-24T23:47:35.768Z,35.73
2019-03-24T23:50:07.673Z,33.25
2019-03-24T23:52:36.848Z,51.68
2019-03-24T23:55:06.692Z,26.97
2019-03-24T23:57:35.277Z,27.77
